createdAt,value
2019-05-06T00:01:04.783Z,6.50
2019-05-06T00:03:34.342Z,6.64
2019-05-06T00:06:03.960Z,6.55
2019-05-06T00:08:34.538Z,6.53
2019-05-06T00:11:04.747Z,6.51
2019-05-06T00:13:34.380Z,6.46
2019-05-06T00:16:03.959Z,6.60
2019-05-06T00:18:34.202Z,6.61
2019-05-06T00:21:04.712Z,6.54
2019-05-06T00:23:37.845Z,6.84
2019-05-06T00:26:21.856Z,6.67
2019-05-06T00:28:53.954Z,6.66
2019-05-06T00:31:25.368Z,6.54
2019-05-06T00:33:54.154Z,6.60
2019-05-06T00:36:23.704Z,6.60
2019-05-06T00:38:54.061Z,6.63
2019-05-06T00:41:29.567Z,6.65
2019-05-06T00:43:57.890Z,6.65
2019-05-06T00:46:26.566Z,6.55
2019-05-06T00:48:54.984Z,6.52
2019-05-06T00:51:24.359Z,6.94
2019-05-06T00:54:00.327Z,6.98
2019-05-06T00:56:28.899Z,6.52
2019-05-06T00:58:57.264Z,6.45
2019-05-06T01:01:29.625Z,6.53
2019-05-06T01:03:56.053Z,6.43
2019-05-06T01:06:24.775Z,6.43
2019-05-06T01:08:54.360Z,6.43
2019-05-06T01:11:23.991Z,6.49
2019-05-06T01:14:00.374Z,6.37
2019-05-06T01:16:28.771Z,6.36
2019-05-06T01:18:57.446Z,6.47
2019-05-06T01:21:25.735Z,6.38
2019-05-06T01:23:54.597Z,6.50
2019-05-06T01:26:24.250Z,6.74
2019-05-06T01:28:54.619Z,6.64
2019-05-06T01:31:26.022Z,6.46
2019-05-06T01:33:53.788Z,6.51
2019-05-06T01:36:22.159Z,6.53
2019-05-06T01:39:04.457Z,6.53
2019-05-06T01:41:34.542Z,6.51
2019-05-06T01:44:04.239Z,6.58
2019-05-06T01:46:33.968Z,6.56
2019-05-06T01:49:04.269Z,6.53
2019-05-06T01:51:34.790Z,6.50
2019-05-06T01:54:03.766Z,6.47
2019-05-06T01:56:33.676Z,6.53
2019-05-06T01:59:04.369Z,6.45
2019-05-06T02:01:34.215Z,6.61
2019-05-06T02:04:04.432Z,6.62
2019-05-06T02:06:34.236Z,6.58
2019-05-06T02:09:04.609Z,6.39
2019-05-06T02:11:33.703Z,6.55
2019-05-06T02:14:04.584Z,6.55
2019-05-06T02:16:34.131Z,6.46
2019-05-06T02:19:04.043Z,6.38
2019-05-06T02:21:34.015Z,6.38
2019-05-06T02:24:06.473Z,6.50
2019-05-06T02:26:34.783Z,6.46
2019-05-06T02:29:04.756Z,6.56
2019-05-06T02:31:46.399Z,6.21
2019-05-06T02:34:36.380Z,6.34
2019-05-06T02:37:09.391Z,6.20
2019-05-06T02:39:37.728Z,6.23
2019-05-06T02:42:08.069Z,6.22
2019-05-06T02:44:36.787Z,6.36
2019-05-06T02:47:23.431Z,6.27
2019-05-06T02:49:58.891Z,6.36
2019-05-06T02:52:27.189Z,6.41
2019-05-06T02:54:55.512Z,6.42
2019-05-06T02:57:24.249Z,6.47
2019-05-06T02:59:55.286Z,6.46
2019-05-06T03:02:39.071Z,6.35
2019-05-06T03:04:53.138Z,6.35
2019-05-06T03:07:23.326Z,6.59
2019-05-06T03:09:53.281Z,6.45
2019-05-06T03:12:22.882Z,6.43
2019-05-06T03:14:53.303Z,6.40
2019-05-06T03:17:23.463Z,6.41
2019-05-06T03:19:53.662Z,6.46
2019-05-06T03:22:27.655Z,6.36
2019-05-06T03:24:55.483Z,6.25
2019-05-06T03:27:24.287Z,6.82
2019-05-06T03:29:53.664Z,7.13
2019-05-06T03:32:29.853Z,6.60
2019-05-06T03:35:16.309Z,6.68
2019-05-06T03:37:23.956Z,6.47
2019-05-06T03:39:53.076Z,6.35
2019-05-06T03:42:23.100Z,6.36
2019-05-06T03:44:53.682Z,6.43
2019-05-06T03:47:40.019Z,6.48
2019-05-06T03:50:08.778Z,7.15
2019-05-06T03:52:37.151Z,6.51
2019-05-06T03:55:05.939Z,6.46
2019-05-06T03:57:36.189Z,6.50
2019-05-06T04:00:06.288Z,6.57
2019-05-06T04:02:39.403Z,6.38
2019-05-06T04:05:06.620Z,6.41
2019-05-06T04:07:35.070Z,6.31
2019-05-06T04:10:04.898Z,6.27
2019-05-06T04:12:34.640Z,6.36
2019-05-06T04:15:04.321Z,6.34
2019-05-06T04:17:40.408Z,6.48
2019-05-06T04:20:16.838Z,6.39
2019-05-06T04:22:55.718Z,6.36
2019-05-06T04:25:43.567Z,6.44
2019-05-06T04:28:14.233Z,6.44
2019-05-06T04:30:43.183Z,6.45
2019-05-06T04:33:16.910Z,6.55
2019-05-06T04:35:43.002Z,6.62
2019-05-06T04:38:14.011Z,6.54
2019-05-06T04:40:43.972Z,6.68
2019-05-06T04:43:13.371Z,6.59
2019-05-06T04:45:43.330Z,6.77
2019-05-06T04:48:14.261Z,6.73
2019-05-06T04:50:44.285Z,6.84
2019-05-06T04:53:13.650Z,6.97
2019-05-06T04:55:43.751Z,6.98
2019-05-06T04:58:13.402Z,7.10
2019-05-06T05:00:44.421Z,7.20
2019-05-06T05:03:13.964Z,7.35
2019-05-06T05:05:44.755Z,7.30
2019-05-06T05:08:13.416Z,7.33
2019-05-06T05:11:03.728Z,7.33
2019-05-06T05:13:43.347Z,7.37
2019-05-06T05:16:16.508Z,7.37
2019-05-06T05:18:49.135Z,7.16
2019-05-06T05:21:17.431Z,7.09
2019-05-06T05:23:45.823Z,7.09
2019-05-06T05:26:14.503Z,7.08
2019-05-06T05:28:43.095Z,6.96
2019-05-06T05:31:12.291Z,6.74
2019-05-06T05:33:42.312Z,6.74
2019-05-06T05:36:12.359Z,6.99
2019-05-06T05:38:42.877Z,7.09
2019-05-06T05:41:12.595Z,7.21
2019-05-06T05:43:45.517Z,7.03
2019-05-06T05:46:14.140Z,7.18
2019-05-06T05:48:54.124Z,7.12
2019-05-06T05:51:22.484Z,7.04
2019-05-06T05:53:52.311Z,7.19
2019-05-06T05:56:23.796Z,7.16
2019-05-06T05:58:53.503Z,7.16
2019-05-06T06:01:23.395Z,7.39
2019-05-06T06:03:52.832Z,7.27
2019-05-06T06:06:22.315Z,7.27
2019-05-06T06:08:52.357Z,7.37
2019-05-06T06:11:26.443Z,7.51
2019-05-06T06:13:56.633Z,7.59
2019-05-06T06:16:29.391Z,7.93
2019-05-06T06:18:59.330Z,7.93
2019-05-06T06:21:35.082Z,7.98
2019-05-06T06:24:07.948Z,7.68
2019-05-06T06:26:36.277Z,7.68
2019-05-06T06:29:04.841Z,8.15
2019-05-06T06:31:34.844Z,7.94
2019-05-06T06:34:07.211Z,7.94
2019-05-06T06:36:37.141Z,8.54
2019-05-06T06:39:12.500Z,8.40
2019-05-06T06:41:42.378Z,8.40
2019-05-06T06:44:13.242Z,8.72
2019-05-06T06:46:42.908Z,8.72
2019-05-06T06:49:12.700Z,8.61
2019-05-06T06:51:42.509Z,8.61
2019-05-06T06:54:12.293Z,8.24
2019-05-06T06:57:03.164Z,8.24
2019-05-06T06:59:25.851Z,8.44
2019-05-06T07:02:08.048Z,8.62
2019-05-06T07:04:42.986Z,8.62
2019-05-06T07:07:12.926Z,8.91
2019-05-06T07:09:42.030Z,8.91
2019-05-06T07:12:13.026Z,8.73
2019-05-06T07:14:42.294Z,8.73
2019-05-06T07:17:13.197Z,9.07
2019-05-06T07:19:45.737Z,9.07
2019-05-06T07:22:14.027Z,9.27
2019-05-06T07:24:43.098Z,9.20
2019-05-06T07:27:15.952Z,9.20
2019-05-06T07:29:48.434Z,9.32
2019-05-06T07:32:14.362Z,9.90
2019-05-06T07:34:42.766Z,10.22
2019-05-06T07:37:12.495Z,10.50
2019-05-06T07:39:43.040Z,10.31
2019-05-06T07:42:18.484Z,10.73
2019-05-06T07:45:06.611Z,10.55
2019-05-06T07:47:35.470Z,10.36
2019-05-06T07:50:06.330Z,9.99
2019-05-06T07:52:34.799Z,9.96
2019-05-06T07:55:03.155Z,9.87
2019-05-06T07:57:33.054Z,9.68
2019-05-06T08:00:03.432Z,9.85
2019-05-06T08:02:32.171Z,9.60
2019-05-06T08:05:02.601Z,9.85
2019-05-06T08:07:33.131Z,9.76
2019-05-06T08:10:02.161Z,9.75
2019-05-06T08:12:32.662Z,9.50
2019-05-06T08:15:04.484Z,9.74
2019-05-06T08:17:33.178Z,9.49
2019-05-06T08:20:02.693Z,9.49
2019-05-06T08:22:33.358Z,9.95
2019-05-06T08:25:03.431Z,10.05
2019-05-06T08:27:32.982Z,9.85
2019-05-06T08:30:02.385Z,9.91
2019-05-06T08:32:32.189Z,9.91
2019-05-06T08:35:03.363Z,9.85
2019-05-06T08:37:35.722Z,9.65
2019-05-06T08:40:05.258Z,10.14
2019-05-06T08:42:33.647Z,10.08
2019-05-06T08:45:02.274Z,9.77
2019-05-06T08:47:32.859Z,9.79
2019-05-06T08:50:02.648Z,9.92
2019-05-06T08:52:49.633Z,9.92
2019-05-06T08:55:36.107Z,9.94
2019-05-06T08:58:04.697Z,9.84
2019-05-06T09:00:35.083Z,9.84
2019-05-06T09:03:04.270Z,9.65
2019-05-06T09:05:33.271Z,9.65
2019-05-06T09:08:03.667Z,9.95
2019-05-06T09:10:32.516Z,9.81
2019-05-06T09:13:02.011Z,9.90
2019-05-06T09:15:32.804Z,9.81
2019-05-06T09:18:02.960Z,9.68
2019-05-06T09:20:32.620Z,9.54
2019-05-06T09:23:04.537Z,9.57
2019-05-06T09:25:32.301Z,9.60
2019-05-06T09:28:05.234Z,9.60
2019-05-06T09:30:43.270Z,9.67
2019-05-06T09:33:12.958Z,9.90
2019-05-06T09:35:42.231Z,10.08
2019-05-06T09:38:12.722Z,10.21
2019-05-06T09:40:43.103Z,9.97
2019-05-06T09:43:13.210Z,9.79
2019-05-06T09:45:42.543Z,9.85
2019-05-06T09:48:22.432Z,10.29
2019-05-06T09:50:53.540Z,9.88
2019-05-06T09:53:34.659Z,10.55
2019-05-06T09:56:04.646Z,11.01
2019-05-06T09:58:35.418Z,10.84
2019-05-06T10:01:04.124Z,11.19
2019-05-06T10:03:32.438Z,10.89
2019-05-06T10:06:02.678Z,11.19
2019-05-06T10:08:32.300Z,11.11
2019-05-06T10:11:02.942Z,10.92
2019-05-06T10:13:32.727Z,10.40
2019-05-06T10:16:03.040Z,10.08
2019-05-06T10:18:31.214Z,9.95
2019-05-06T10:20:59.537Z,9.99
2019-05-06T10:23:27.827Z,9.83
2019-05-06T10:25:56.188Z,10.35
2019-05-06T10:28:38.295Z,10.69
2019-05-06T10:31:08.328Z,10.70
2019-05-06T10:33:38.267Z,10.44
2019-05-06T10:36:06.645Z,10.71
2019-05-06T10:38:52.984Z,10.96
2019-05-06T10:41:30.327Z,11.50
2019-05-06T10:44:13.507Z,12.20
2019-05-06T10:46:43.080Z,13.23
2019-05-06T10:49:13.181Z,12.33
2019-05-06T10:51:46.426Z,13.00
2019-05-06T10:54:14.692Z,12.89
2019-05-06T10:56:52.837Z,12.80
2019-05-06T10:59:16.343Z,12.97
2019-05-06T11:01:46.343Z,12.34
2019-05-06T11:04:14.662Z,12.14
2019-05-06T11:06:43.170Z,12.22
2019-05-06T11:09:13.505Z,11.60
2019-05-06T11:11:42.761Z,12.49
2019-05-06T11:14:12.801Z,12.06
2019-05-06T11:16:41.688Z,12.71
2019-05-06T11:19:10.368Z,12.64
2019-05-06T11:21:38.664Z,13.04
2019-05-06T11:24:07.072Z,12.94
2019-05-06T11:26:35.379Z,12.89
2019-05-06T11:29:05.494Z,13.21
2019-05-06T11:31:44.456Z,13.79
2019-05-06T11:34:26.260Z,14.20
2019-05-06T11:36:56.185Z,13.56
2019-05-06T11:39:24.861Z,13.53
2019-05-06T11:42:14.470Z,14.59
2019-05-06T11:44:23.829Z,13.88
2019-05-06T11:46:53.084Z,12.84
2019-05-06T11:49:23.323Z,12.54
2019-05-06T11:51:51.426Z,11.78
2019-05-06T11:54:23.546Z,12.15
2019-05-06T11:56:52.683Z,11.94
2019-05-06T11:59:22.652Z,11.89
2019-05-06T12:01:53.490Z,11.78
2019-05-06T12:04:23.028Z,12.23
2019-05-06T12:06:52.618Z,12.13
2019-05-06T12:09:22.285Z,12.20
2019-05-06T12:11:52.879Z,12.18
2019-05-06T12:14:22.645Z,12.29
2019-05-06T12:16:54.820Z,12.06
2019-05-06T12:19:22.536Z,12.20
2019-05-06T12:21:51.443Z,12.13
2019-05-06T12:24:19.767Z,12.45
2019-05-06T12:26:48.058Z,12.44
2019-05-06T12:29:16.349Z,12.93
2019-05-06T12:31:46.307Z,12.54
2019-05-06T12:34:14.844Z,12.60
2019-05-06T12:36:43.366Z,13.04
2019-05-06T12:39:18.517Z,13.17
2019-05-06T12:42:03.690Z,12.78
2019-05-06T12:44:33.773Z,12.93
2019-05-06T12:47:09.643Z,12.15
2019-05-06T12:49:38.234Z,11.92
2019-05-06T12:52:06.617Z,11.20
2019-05-06T12:54:35.199Z,11.31
2019-05-06T12:57:03.659Z,11.87
2019-05-06T12:59:32.375Z,12.14
2019-05-06T13:02:02.802Z,12.20
2019-05-06T13:04:46.371Z,12.36
2019-05-06T13:07:02.903Z,12.80
2019-05-06T13:09:32.951Z,12.89
2019-05-06T13:12:03.465Z,12.73
2019-05-06T13:14:32.947Z,12.50
2019-05-06T13:17:02.615Z,12.42
2019-05-06T13:19:32.239Z,13.18
2019-05-06T13:22:03.625Z,13.39
2019-05-06T13:24:32.710Z,13.26
2019-05-06T13:27:02.515Z,13.34
2019-05-06T13:29:35.389Z,12.99
2019-05-06T13:32:03.129Z,14.11
2019-05-06T13:34:33.329Z,16.43
2019-05-06T13:37:01.714Z,16.83
2019-05-06T13:39:32.570Z,16.45
2019-05-06T13:42:00.171Z,15.05
2019-05-06T13:44:28.467Z,14.22
2019-05-06T13:46:56.865Z,13.74
2019-05-06T13:49:26.860Z,13.44
2019-05-06T13:51:56.852Z,13.43
2019-05-06T13:54:25.194Z,12.91
2019-05-06T13:56:53.492Z,12.85
2019-05-06T13:59:21.825Z,12.73
2019-05-06T14:02:06.140Z,12.46
2019-05-06T14:04:32.686Z,13.01
2019-05-06T14:07:03.412Z,13.22
2019-05-06T14:09:35.263Z,13.26
2019-05-06T14:12:02.601Z,13.64
2019-05-06T14:14:32.202Z,13.92
2019-05-06T14:17:00.987Z,14.76
2019-05-06T14:19:29.311Z,14.65
2019-05-06T14:21:57.603Z,15.02
2019-05-06T14:24:27.258Z,13.99
2019-05-06T14:27:03.293Z,15.80
2019-05-06T14:29:35.965Z,15.98
2019-05-06T14:32:04.371Z,15.22
2019-05-06T14:34:32.723Z,15.63
2019-05-06T14:37:00.992Z,15.12
2019-05-06T14:39:48.550Z,13.96
2019-05-06T14:42:03.918Z,13.20
2019-05-06T14:44:32.718Z,12.32
2019-05-06T14:47:05.516Z,11.42
2019-05-06T14:49:33.809Z,10.27
2019-05-06T14:52:02.862Z,10.04
2019-05-06T14:54:33.066Z,10.32
2019-05-06T14:57:14.355Z,10.34
2019-05-06T14:59:42.644Z,10.43
2019-05-06T15:02:13.078Z,10.91
2019-05-06T15:04:43.512Z,10.63
2019-05-06T15:07:12.756Z,10.71
2019-05-06T15:09:55.670Z,10.82
2019-05-06T15:12:12.960Z,10.89
2019-05-06T15:14:42.590Z,11.00
2019-05-06T15:17:11.109Z,11.24
2019-05-06T15:19:39.758Z,11.59
2019-05-06T15:22:08.060Z,11.64
2019-05-06T15:24:36.414Z,12.53
2019-05-06T15:27:04.802Z,12.38
2019-05-06T15:29:33.122Z,13.15
2019-05-06T15:32:03.059Z,13.07
2019-05-06T15:34:42.338Z,12.76
2019-05-06T15:37:15.323Z,13.04
2019-05-06T15:39:43.948Z,12.62
2019-05-06T15:42:12.957Z,13.04
2019-05-06T15:44:42.451Z,13.47
2019-05-06T15:47:13.155Z,13.36
2019-05-06T15:49:41.917Z,13.48
2019-05-06T15:52:12.515Z,13.92
2019-05-06T15:54:42.895Z,14.33
2019-05-06T15:57:10.809Z,13.79
2019-05-06T15:59:41.371Z,14.07
2019-05-06T16:02:09.292Z,13.85
2019-05-06T16:04:37.619Z,14.45
2019-05-06T16:07:06.350Z,14.59
2019-05-06T16:09:34.739Z,14.40
2019-05-06T16:12:03.267Z,14.36
2019-05-06T16:14:34.123Z,13.50
2019-05-06T16:17:01.840Z,13.36
2019-05-06T16:19:30.124Z,13.52
2019-05-06T16:21:58.487Z,13.02
2019-05-06T16:24:28.435Z,13.26
2019-05-06T16:26:56.760Z,13.04
2019-05-06T16:29:36.819Z,12.94
2019-05-06T16:32:07.839Z,13.54
2019-05-06T16:34:36.686Z,14.20
2019-05-06T16:37:05.848Z,13.93
2019-05-06T16:39:34.655Z,13.69
2019-05-06T16:42:03.752Z,14.02
2019-05-06T16:44:32.542Z,13.53
2019-05-06T16:47:02.863Z,13.45
2019-05-06T16:49:33.187Z,12.93
2019-05-06T16:52:02.495Z,13.29
2019-05-06T16:54:34.523Z,14.32
2019-05-06T16:57:13.613Z,13.36
2019-05-06T16:59:42.481Z,12.74
2019-05-06T17:02:13.953Z,12.85
2019-05-06T17:04:43.972Z,13.85
2019-05-06T17:07:12.408Z,12.54
2019-05-06T17:09:42.819Z,12.76
2019-05-06T17:12:12.669Z,12.94
2019-05-06T17:14:42.784Z,12.02
2019-05-06T17:17:10.898Z,11.68
2019-05-06T17:19:39.194Z,11.28
2019-05-06T17:22:07.512Z,11.05
2019-05-06T17:24:35.804Z,11.53
2019-05-06T17:27:04.259Z,11.18
2019-05-06T17:29:50.634Z,10.74
2019-05-06T17:32:22.231Z,10.66
2019-05-06T17:34:52.769Z,10.47
2019-05-06T17:37:39.537Z,10.28
2019-05-06T17:40:14.132Z,10.23
2019-05-06T17:42:42.388Z,10.16
2019-05-06T17:45:29.277Z,10.08
2019-05-06T17:48:08.008Z,10.19
2019-05-06T17:50:36.368Z,10.14
2019-05-06T17:53:04.771Z,10.19
2019-05-06T17:55:33.422Z,10.11
2019-05-06T17:58:02.520Z,10.03
2019-05-06T18:00:32.379Z,10.17
2019-05-06T18:03:02.532Z,10.09
2019-05-06T18:05:32.492Z,10.04
2019-05-06T18:08:02.891Z,10.07
2019-05-06T18:10:33.511Z,10.11
2019-05-06T18:13:03.162Z,9.98
2019-05-06T18:15:32.179Z,9.98
2019-05-06T18:18:02.180Z,10.07
2019-05-06T18:20:33.355Z,10.02
2019-05-06T18:23:02.129Z,9.97
2019-05-06T18:25:32.875Z,9.90
2019-05-06T18:28:01.225Z,9.84
2019-05-06T18:30:33.316Z,9.98
2019-05-06T18:32:59.628Z,9.91
2019-05-06T18:35:27.936Z,9.82
2019-05-06T18:37:56.241Z,9.83
2019-05-06T18:40:24.824Z,9.75
2019-05-06T18:42:53.117Z,9.75
2019-05-06T18:45:22.030Z,9.69
2019-05-06T18:47:53.034Z,9.69
2019-05-06T18:50:22.087Z,9.72
2019-05-06T18:52:52.839Z,9.72
2019-05-06T18:55:22.351Z,9.69
2019-05-06T18:57:52.826Z,9.57
2019-05-06T19:00:22.596Z,9.61
2019-05-06T19:02:52.218Z,9.61
2019-05-06T19:05:26.762Z,9.48
2019-05-06T19:07:53.357Z,9.48
2019-05-06T19:10:23.462Z,9.60
2019-05-06T19:12:52.790Z,9.74
2019-05-06T19:15:22.095Z,9.61
2019-05-06T19:17:52.657Z,9.60
2019-05-06T19:20:21.923Z,9.67
2019-05-06T19:22:53.382Z,9.64
2019-05-06T19:25:22.686Z,9.58
2019-05-06T19:27:53.019Z,9.61
2019-05-06T19:30:22.564Z,9.54
2019-05-06T19:32:53.065Z,9.59
2019-05-06T19:35:21.557Z,9.59
2019-05-06T19:37:49.906Z,9.49
2019-05-06T19:40:18.286Z,9.53
2019-05-06T19:42:49.961Z,9.50
2019-05-06T19:45:16.756Z,9.39
2019-05-06T19:47:45.039Z,9.41
2019-05-06T19:50:13.602Z,9.40
2019-05-06T19:52:42.273Z,9.41
2019-05-06T19:55:12.325Z,9.34
2019-05-06T19:57:42.963Z,9.24
2019-05-06T20:00:11.465Z,9.39
2019-05-06T20:02:39.868Z,9.21
2019-05-06T20:05:12.527Z,9.16
2019-05-06T20:07:45.140Z,9.20
2019-05-06T20:10:22.998Z,9.20
2019-05-06T20:13:02.714Z,9.24
2019-05-06T20:15:33.925Z,9.12
2019-05-06T20:18:03.235Z,9.21
2019-05-06T20:20:34.322Z,9.21
2019-05-06T20:23:02.644Z,9.25
2019-05-06T20:25:31.333Z,9.18
2019-05-06T20:27:59.642Z,9.19
2019-05-06T20:30:28.014Z,9.09
2019-05-06T20:32:56.304Z,9.12
2019-05-06T20:35:24.702Z,9.22
2019-05-06T20:37:53.520Z,9.22
2019-05-06T20:40:22.930Z,9.16
2019-05-06T20:42:51.524Z,9.16
2019-05-06T20:45:22.171Z,9.12
2019-05-06T20:47:52.328Z,9.12
2019-05-06T20:50:22.536Z,9.00
2019-05-06T20:52:52.044Z,9.10
2019-05-06T20:55:22.706Z,9.10
2019-05-06T20:57:52.730Z,9.05
2019-05-06T21:00:22.376Z,9.05
2019-05-06T21:02:53.370Z,8.90
2019-05-06T21:05:22.783Z,8.91
2019-05-06T21:07:52.605Z,8.91
2019-05-06T21:10:22.158Z,8.87
2019-05-06T21:12:53.002Z,8.86
2019-05-06T21:15:22.858Z,8.81
2019-05-06T21:17:51.130Z,8.86
2019-05-06T21:20:19.774Z,8.75
2019-05-06T21:22:49.268Z,8.81
2019-05-06T21:25:18.033Z,8.81
2019-05-06T21:27:46.502Z,8.80
2019-05-06T21:30:15.244Z,8.80
2019-05-06T21:32:43.567Z,8.74
2019-05-06T21:35:12.640Z,8.74
2019-05-06T21:37:42.281Z,8.67
2019-05-06T21:40:12.415Z,8.70
2019-05-06T21:42:43.185Z,8.70
2019-05-06T21:45:12.503Z,8.66
2019-05-06T21:47:44.230Z,8.66
2019-05-06T21:50:12.110Z,8.63
2019-05-06T21:52:42.857Z,8.59
2019-05-06T21:55:13.175Z,8.52
2019-05-06T21:57:42.278Z,8.40
2019-05-06T22:00:16.797Z,8.40
2019-05-06T22:02:43.500Z,8.53
2019-05-06T22:05:13.321Z,8.44
2019-05-06T22:07:43.458Z,8.26
2019-05-06T22:10:12.321Z,8.26
2019-05-06T22:12:43.152Z,8.55
2019-05-06T22:15:11.903Z,8.51
2019-05-06T22:17:42.766Z,8.61
2019-05-06T22:20:11.086Z,8.56
2019-05-06T22:22:43.453Z,8.57
2019-05-06T22:25:12.519Z,8.57
2019-05-06T22:27:42.394Z,8.53
2019-05-06T22:30:11.816Z,8.51
2019-05-06T22:32:45.789Z,8.42
2019-05-06T22:35:15.947Z,8.42
2019-05-06T22:37:45.082Z,8.56
2019-05-06T22:40:14.345Z,8.51
2019-05-06T22:42:43.225Z,8.51
2019-05-06T22:45:13.187Z,8.50
2019-05-06T22:47:42.115Z,8.52
2019-05-06T22:50:13.156Z,8.36
2019-05-06T22:52:42.066Z,8.36
2019-05-06T22:55:12.988Z,8.49
2019-05-06T22:57:42.250Z,8.55
2019-05-06T23:00:15.154Z,8.52
2019-05-06T23:02:54.125Z,8.43
2019-05-06T23:05:23.132Z,8.60
2019-05-06T23:07:53.264Z,8.60
2019-05-06T23:10:24.497Z,8.64
2019-05-06T23:12:52.296Z,8.64
2019-05-06T23:15:20.809Z,8.70
2019-05-06T23:17:49.134Z,8.54
2019-05-06T23:20:17.623Z,8.65
2019-05-06T23:22:45.921Z,8.68
2019-05-06T23:25:14.318Z,8.63
2019-05-06T23:27:44.111Z,8.64
2019-05-06T23:30:12.886Z,8.72
2019-05-06T23:32:42.271Z,8.72
2019-05-06T23:35:12.857Z,8.68
2019-05-06T23:38:17.319Z,8.63
2019-05-06T23:41:21.993Z,8.61
2019-05-06T23:44:27.084Z,8.61
2019-05-06T23:47:32.214Z,8.50
2019-05-06T23:50:37.137Z,8.42
2019-05-06T23:53:41.650Z,8.42
2019-05-06T23:56:46.383Z,8.56
2019-05-06T23:59:17.220Z,8.44
